sensor_id;sensor_type;location;lat;lon;timestamp;pressure;altitude;pressure_sealevel;temperature;humidity
22241;BME280;11289;52.524;13.694;2024-02-23T00:02:05;97903.66;;;9.24;100.00
22241;BME280;11289;52.524;13.694;2024-02-23T00:04:31;97893.34;;;9.21;100.00
22241;BME280;11289;52.524;13.694;2024-02-23T00:06:57;97902.06;;;9.23;100.00
22241;BME280;11289;52.524;13.694;2024-02-23T00:09:23;97893.75;;;9.20;100.00
22241;BME280;11289;52.524;13.694;2024-02-23T00:11:50;97890.59;;;9.21;100.00
22241;BME280;11289;52.524;13.694;2024-02-23T00:14:16;97892.16;;;9.19;100.00
22241;BME280;11289;52.524;13.694;2024-02-23T00:16:44;97890.97;;;9.20;100.00
22241;BME280;11289;52.524;13.694;2024-02-23T00:19:10;97900.06;;;9.17;100.00
22241;BME280;11289;52.524;13.694;2024-02-23T00:21:37;97898.03;;;9.10;100.00
22241;BME280;11289;52.524;13.694;2024-02-23T00:24:04;97915.84;;;9.13;100.00
22241;BME280;11289;52.524;13.694;2024-02-23T00:26:31;97911.09;;;9.13;100.00
22241;BME280;11289;52.524;13.694;2024-02-23T00:28:57;97905.16;;;9.11;100.00
22241;BME280;11289;52.524;13.694;2024-02-23T00:31:23;97907.16;;;9.14;100.00
22241;BME280;11289;52.524;13.694;2024-02-23T00:33:49;97894.47;;;9.13;100.00
22241;BME280;11289;52.524;13.694;2024-02-23T00:36:14;97892.09;;;9.12;100.00
22241;BME280;11289;52.524;13.694;2024-02-23T00:38:40;97899.25;;;9.16;100.00
22241;BME280;11289;52.524;13.694;2024-02-23T00:41:06;97892.53;;;9.14;100.00
22241;BME280;11289;52.524;13.694;2024-02-23T00:43:41;97901.66;;;9.18;100.00
22241;BME280;11289;52.524;13.694;2024-02-23T00:46:08;97913.50;;;9.18;100.00
22241;BME280;11289;52.524;13.694;2024-02-23T00:48:34;97892.16;;;9.19;100.00
22241;BME280;11289;52.524;13.694;2024-02-23T00:51:02;97899.66;;;9.22;100.00
22241;BME280;11289;52.524;13.694;2024-02-23T00:53:30;97896.91;;;9.18;100.00
22241;BME280;11289;52.524;13.694;2024-02-23T00:55:56;97909.56;;;9.19;100.00
22241;BME280;11289;52.524;13.694;2024-02-23T00:58:22;97899.28;;;9.20;100.00
22241;BME280;11289;52.524;13.694;2024-02-23T01:00:48;97906.38;;;9.17;100.00
22241;BME280;11289;52.524;13.694;2024-02-23T01:03:14;97902.44;;;9.18;100.00
22241;BME280;11289;52.524;13.694;2024-02-23T01:05:40;97898.47;;;9.16;100.00
22241;BME280;11289;52.524;13.694;2024-02-23T01:08:08;97892.13;;;9.15;100.00
22241;BME280;11289;52.524;13.694;2024-02-23T01:10:34;97900.84;;;9.17;100.00
22241;BME280;11289;52.524;13.694;2024-02-23T01:13:00;97912.34;;;9.19;100.00
22241;BME280;11289;52.524;13.694;2024-02-23T01:15:26;97916.66;;;9.17;100.00
22241;BME280;11289;52.524;13.694;2024-02-23T01:17:52;97918.22;;;9.14;100.00
22241;BME280;11289;52.524;13.694;2024-02-23T01:20:18;97927.34;;;9.18;100.00
22241;BME280;11289;52.524;13.694;2024-02-23T01:22:44;97922.97;;;9.17;100.00
22241;BME280;11289;52.524;13.694;2024-02-23T01:25:10;97936.44;;;9.15;100.00
22241;BME280;11289;52.524;13.694;2024-02-23T01:27:36;97942.34;;;9.17;100.00
22241;BME280;11289;52.524;13.694;2024-02-23T01:30:03;97939.59;;;9.17;100.00
22241;BME280;11289;52.524;13.694;2024-02-23T01:32:29;97959.34;;;9.16;100.00
22241;BME280;11289;52.524;13.694;2024-02-23T01:34:55;97951.44;;;9.14;100.00
22241;BME280;11289;52.524;13.694;2024-02-23T01:37:21;97953.81;;;9.16;100.00
22241;BME280;11289;52.524;13.694;2024-02-23T01:39:47;97966.47;;;9.17;100.00
22241;BME280;11289;52.524;13.694;2024-02-23T01:42:13;97965.66;;;9.16;100.00
22241;BME280;11289;52.524;13.694;2024-02-23T01:44:39;97982.28;;;9.16;100.00
22241;BME280;11289;52.524;13.694;2024-02-23T01:47:05;97987.84;;;9.20;100.00
22241;BME280;11289;52.524;13.694;2024-02-23T01:49:32;97983.88;;;9.17;100.00
22241;BME280;11289;52.524;13.694;2024-02-23T01:52:00;98009.22;;;9.23;100.00
22241;BME280;11289;52.524;13.694;2024-02-23T01:54:26;97998.16;;;9.23;99.63
22241;BME280;11289;52.524;13.694;2024-02-23T01:56:55;98002.88;;;9.19;99.46
22241;BME280;11289;52.524;13.694;2024-02-23T01:59:23;98016.38;;;9.28;97.82
22241;BME280;11289;52.524;13.694;2024-02-23T02:01:49;98015.97;;;9.29;97.39
22241;BME280;11289;52.524;13.694;2024-02-23T02:04:15;98021.94;;;9.31;97.05
22241;BME280;11289;52.524;13.694;2024-02-23T02:06:41;98036.22;;;9.37;95.60
22241;BME280;11289;52.524;13.694;2024-02-23T02:09:07;98040.94;;;9.36;96.43
22241;BME280;11289;52.524;13.694;2024-02-23T02:11:33;98058.38;;;9.37;96.04
22241;BME280;11289;52.524;13.694;2024-02-23T02:13:59;98062.69;;;9.34;95.19
22241;BME280;11289;52.524;13.694;2024-02-23T02:16:25;98080.53;;;9.37;95.18
22241;BME280;11289;52.524;13.694;2024-02-23T02:18:51;98090.00;;;9.39;94.84
22241;BME280;11289;52.524;13.694;2024-02-23T02:21:17;98094.38;;;9.37;94.61
22241;BME280;11289;52.524;13.694;2024-02-23T02:23:44;98101.47;;;9.38;94.67
22241;BME280;11289;52.524;13.694;2024-02-23T02:26:10;98095.53;;;9.36;93.81
22241;BME280;11289;52.524;13.694;2024-02-23T02:28:36;98101.47;;;9.34;91.25
22241;BME280;11289;52.524;13.694;2024-02-23T02:31:02;98126.78;;;9.36;88.14
22241;BME280;11289;52.524;13.694;2024-02-23T02:33:28;98131.53;;;9.36;84.40
22241;BME280;11289;52.524;13.694;2024-02-23T02:35:54;98145.75;;;9.34;80.60
22241;BME280;11289;52.524;13.694;2024-02-23T02:38:20;98161.94;;;9.29;78.22
22241;BME280;11289;52.524;13.694;2024-02-23T02:40:46;98171.84;;;9.30;80.16
22241;BME280;11289;52.524;13.694;2024-02-23T02:43:12;98167.44;;;9.25;78.83
22241;BME280;11289;52.524;13.694;2024-02-23T02:45:38;98191.84;;;9.16;76.55
22241;BME280;11289;52.524;13.694;2024-02-23T02:48:04;98187.06;;;9.09;73.99
22241;BME280;11289;52.524;13.694;2024-02-23T02:50:31;98194.94;;;9.07;74.73
22241;BME280;11289;52.524;13.694;2024-02-23T02:52:57;98198.00;;;8.98;72.72
22241;BME280;11289;52.524;13.694;2024-02-23T02:55:23;98204.69;;;8.97;72.52
22241;BME280;11289;52.524;13.694;2024-02-23T02:57:49;98191.16;;;8.88;72.07
22241;BME280;11289;52.524;13.694;2024-02-23T03:00:15;98195.53;;;8.89;72.66
22241;BME280;11289;52.524;13.694;2024-02-23T03:02:40;98206.97;;;8.88;70.76
22241;BME280;11289;52.524;13.694;2024-02-23T03:05:07;98211.25;;;8.82;71.26
22241;BME280;11289;52.524;13.694;2024-02-23T03:07:33;98228.63;;;8.79;70.56
22241;BME280;11289;52.524;13.694;2024-02-23T03:09:59;98242.88;;;8.81;70.96
22241;BME280;11289;52.524;13.694;2024-02-23T03:12:25;98247.59;;;8.80;69.69
22241;BME280;11289;52.524;13.694;2024-02-23T03:14:50;98255.84;;;8.77;69.57
22241;BME280;11289;52.524;13.694;2024-02-23T03:17:16;98270.50;;;8.77;69.81
22241;BME280;11289;52.524;13.694;2024-02-23T03:19:42;98264.50;;;8.71;69.56
22241;BME280;11289;52.524;13.694;2024-02-23T03:22:08;98270.44;;;8.74;68.68
22241;BME280;11289;52.524;13.694;2024-02-23T03:24:34;98281.47;;;8.70;69.27
22241;BME280;11289;52.524;13.694;2024-02-23T03:27:01;98293.69;;;8.69;69.35
22241;BME280;11289;52.524;13.694;2024-02-23T03:29:27;98294.44;;;8.66;69.07
22241;BME280;11289;52.524;13.694;2024-02-23T03:31:56;98284.88;;;8.60;68.65
22241;BME280;11289;52.524;13.694;2024-02-23T03:34:22;98283.69;;;8.61;68.16
22241;BME280;11289;52.524;13.694;2024-02-23T03:36:48;98303.44;;;8.59;67.71
22241;BME280;11289;52.524;13.694;2024-02-23T03:39:14;98298.72;;;8.60;66.90
22241;BME280;11289;52.524;13.694;2024-02-23T03:41:41;98304.66;;;8.62;66.58
22241;BME280;11289;52.524;13.694;2024-02-23T03:44:07;98314.88;;;8.58;67.31
22241;BME280;11289;52.524;13.694;2024-02-23T03:46:33;98323.94;;;8.58;65.35
22241;BME280;11289;52.524;13.694;2024-02-23T03:49:00;98325.56;;;8.59;65.99
22241;BME280;11289;52.524;13.694;2024-02-23T03:51:26;98322.75;;;8.56;66.05
22241;BME280;11289;52.524;13.694;2024-02-23T03:53:52;98332.59;;;8.53;66.72
22241;BME280;11289;52.524;13.694;2024-02-23T03:56:18;98330.09;;;8.44;66.61
22241;BME280;11289;52.524;13.694;2024-02-23T03:58:44;98337.22;;;8.45;66.26
22241;BME280;11289;52.524;13.694;2024-02-23T04:01:10;98346.56;;;8.41;66.18
22241;BME280;11289;52.524;13.694;2024-02-23T04:03:36;98340.22;;;8.36;64.94
22241;BME280;11289;52.524;13.694;2024-02-23T04:06:02;98353.97;;;8.33;65.91
22241;BME280;11289;52.524;13.694;2024-02-23T04:08:28;98346.41;;;8.30;66.53
22241;BME280;11289;52.524;13.694;2024-02-23T04:10:54;98353.09;;;8.29;66.51
22241;BME280;11289;52.524;13.694;2024-02-23T04:13:20;98359.75;;;8.24;66.57
22241;BME280;11289;52.524;13.694;2024-02-23T04:15:47;98356.63;;;8.26;67.17
22241;BME280;11289;52.524;13.694;2024-02-23T04:18:13;98365.22;;;8.21;67.16
22241;BME280;11289;52.524;13.694;2024-02-23T04:20:39;98368.72;;;8.17;67.07
22241;BME280;11289;52.524;13.694;2024-02-23T04:23:05;98378.59;;;8.18;66.63
22241;BME280;11289;52.524;13.694;2024-02-23T04:25:31;98395.94;;;8.15;66.65
22241;BME280;11289;52.524;13.694;2024-02-23T04:27:57;98404.50;;;8.10;67.70
22241;BME280;11289;52.524;13.694;2024-02-23T04:30:22;98401.66;;;8.03;67.35
22241;BME280;11289;52.524;13.694;2024-02-23T04:32:49;98415.50;;;8.07;67.05
22241;BME280;11289;52.524;13.694;2024-02-23T04:35:15;98413.03;;;8.01;67.22
22241;BME280;11289;52.524;13.694;2024-02-23T04:37:44;98421.69;;;8.00;66.31
22241;BME280;11289;52.524;13.694;2024-02-23T04:40:11;98439.09;;;8.00;67.29
22241;BME280;11289;52.524;13.694;2024-02-23T04:42:37;98437.00;;;7.94;66.95
22241;BME280;11289;52.524;13.694;2024-02-23T04:45:04;98457.19;;;7.98;66.02
22241;BME280;11289;52.524;13.694;2024-02-23T04:47:30;98459.16;;;7.97;66.44
22241;BME280;11289;52.524;13.694;2024-02-23T04:49:56;98462.63;;;7.94;65.84
22241;BME280;11289;52.524;13.694;2024-02-23T04:52:23;98487.59;;;7.98;66.21
22241;BME280;11289;52.524;13.694;2024-02-23T04:54:48;98478.44;;;7.94;65.12
22241;BME280;11289;52.524;13.694;2024-02-23T04:57:14;98502.13;;;7.95;65.76
22241;BME280;11289;52.524;13.694;2024-02-23T04:59:40;98511.59;;;7.94;64.80
22241;BME280;11289;52.524;13.694;2024-02-23T05:02:06;98501.25;;;7.91;65.28
22241;BME280;11289;52.524;13.694;2024-02-23T05:04:32;98506.38;;;7.89;65.74
22241;BME280;11289;52.524;13.694;2024-02-23T05:06:59;98513.09;;;7.91;66.30
22241;BME280;11289;52.524;13.694;2024-02-23T05:09:25;98519.44;;;7.92;65.36
22241;BME280;11289;52.524;13.694;2024-02-23T05:11:50;98526.88;;;7.88;63.95
22241;BME280;11289;52.524;13.694;2024-02-23T05:14:16;98528.47;;;7.89;64.32
22241;BME280;11289;52.524;13.694;2024-02-23T05:16:42;98535.06;;;7.84;64.53
22241;BME280;11289;52.524;13.694;2024-02-23T05:19:08;98540.94;;;7.82;64.76
22241;BME280;11289;52.524;13.694;2024-02-23T05:21:34;98528.59;;;7.76;64.39
22241;BME280;11289;52.524;13.694;2024-02-23T05:24:00;98541.25;;;7.77;63.79
22241;BME280;11289;52.524;13.694;2024-02-23T05:26:26;98547.13;;;7.76;63.88
22241;BME280;11289;52.524;13.694;2024-02-23T05:28:52;98541.25;;;7.77;63.73
22241;BME280;11289;52.524;13.694;2024-02-23T05:31:19;98546.78;;;7.77;63.99
22241;BME280;11289;52.524;13.694;2024-02-23T05:33:45;98561.31;;;7.74;64.08
22241;BME280;11289;52.524;13.694;2024-02-23T05:36:11;98568.00;;;7.73;63.23
22241;BME280;11289;52.524;13.694;2024-02-23T05:38:37;98581.00;;;7.73;64.30
22241;BME280;11289;52.524;13.694;2024-02-23T05:41:03;98592.06;;;7.73;64.36
22241;BME280;11289;52.524;13.694;2024-02-23T05:43:30;98603.00;;;7.69;64.61
22241;BME280;11289;52.524;13.694;2024-02-23T05:45:56;98616.81;;;7.69;64.19
22241;BME280;11289;52.524;13.694;2024-02-23T05:48:24;98624.69;;;7.67;63.54
22241;BME280;11289;52.524;13.694;2024-02-23T05:50:50;98632.16;;;7.66;64.32
22241;BME280;11289;52.524;13.694;2024-02-23T05:53:16;98645.88;;;7.63;64.01
22241;BME280;11289;52.524;13.694;2024-02-23T05:55:42;98630.66;;;7.53;62.74
22241;BME280;11289;52.524;13.694;2024-02-23T05:58:08;98648.75;;;7.50;61.93
22241;BME280;11289;52.524;13.694;2024-02-23T06:00:35;98637.88;;;7.42;61.78
22241;BME280;11289;52.524;13.694;2024-02-23T06:03:01;98663.44;;;7.39;61.89
22241;BME280;11289;52.524;13.694;2024-02-23T06:05:27;98678.75;;;7.36;62.21
22241;BME280;11289;52.524;13.694;2024-02-23T06:07:53;98678.25;;;7.30;61.63
22241;BME280;11289;52.524;13.694;2024-02-23T06:10:19;98674.94;;;7.25;62.92
22241;BME280;11289;52.524;13.694;2024-02-23T06:12:45;98692.47;;;7.17;63.12
22241;BME280;11289;52.524;13.694;2024-02-23T06:15:11;98703.88;;;7.15;62.84
22241;BME280;11289;52.524;13.694;2024-02-23T06:17:37;98698.94;;;7.08;63.18
22241;BME280;11289;52.524;13.694;2024-02-23T06:20:05;98705.09;;;7.02;63.06
22241;BME280;11289;52.524;13.694;2024-02-23T06:22:33;98716.94;;;7.02;62.41
22241;BME280;11289;52.524;13.694;2024-02-23T06:24:59;98730.28;;;7.00;62.34
22241;BME280;11289;52.524;13.694;2024-02-23T06:27:25;98745.56;;;6.97;62.10
22241;BME280;11289;52.524;13.694;2024-02-23T06:29:53;98733.88;;;6.88;62.74
22241;BME280;11289;52.524;13.694;2024-02-23T06:32:19;98752.59;;;6.95;62.22
22241;BME280;11289;52.524;13.694;2024-02-23T06:34:45;98750.97;;;6.94;62.40
22241;BME280;11289;52.524;13.694;2024-02-23T06:37:12;98740.66;;;6.91;62.49
22241;BME280;11289;52.524;13.694;2024-02-23T06:39:38;98759.06;;;6.87;63.16
22241;BME280;11289;52.524;13.694;2024-02-23T06:42:04;98763.69;;;6.83;62.96
22241;BME280;11289;52.524;13.694;2024-02-23T06:44:30;98787.34;;;6.84;63.00
22241;BME280;11289;52.524;13.694;2024-02-23T06:46:56;98788.41;;;6.79;62.90
22241;BME280;11289;52.524;13.694;2024-02-23T06:49:22;98780.03;;;6.75;62.86
22241;BME280;11289;52.524;13.694;2024-02-23T06:51:48;98790.25;;;6.75;62.63
22241;BME280;11289;52.524;13.694;2024-02-23T06:54:14;98784.84;;;6.78;63.07
22241;BME280;11289;52.524;13.694;2024-02-23T06:56:40;98797.38;;;6.76;63.56
22241;BME280;11289;52.524;13.694;2024-02-23T06:59:06;98813.13;;;6.75;63.40
22241;BME280;11289;52.524;13.694;2024-02-23T07:01:32;98811.50;;;6.74;63.08
22241;BME280;11289;52.524;13.694;2024-02-23T07:04:00;98810.59;;;6.70;63.54
22241;BME280;11289;52.524;13.694;2024-02-23T07:06:26;98827.16;;;6.70;63.95
22241;BME280;11289;52.524;13.694;2024-02-23T07:08:54;98835.78;;;6.69;63.72
22241;BME280;11289;52.524;13.694;2024-02-23T07:11:20;98838.88;;;6.67;63.17
22241;BME280;11289;52.524;13.694;2024-02-23T07:13:46;98823.25;;;6.71;64.34
22241;BME280;11289;52.524;13.694;2024-02-23T07:16:12;98836.78;;;6.76;64.41
22241;BME280;11289;52.524;13.694;2024-02-23T07:18:40;98838.84;;;6.79;63.39
22241;BME280;11289;52.524;13.694;2024-02-23T07:21:06;98845.28;;;6.84;64.35
22241;BME280;11289;52.524;13.694;2024-02-23T07:23:32;98842.38;;;6.92;64.28
22241;BME280;11289;52.524;13.694;2024-02-23T07:25:58;98845.25;;;6.96;64.74
22241;BME280;11289;52.524;13.694;2024-02-23T07:28:24;98856.50;;;7.03;63.92
22241;BME280;11289;52.524;13.694;2024-02-23T07:30:50;98854.66;;;7.07;64.10
22241;BME280;11289;52.524;13.694;2024-02-23T07:33:16;98847.72;;;7.13;64.67
22241;BME280;11289;52.524;13.694;2024-02-23T07:35:42;98845.06;;;7.17;63.68
22241;BME280;11289;52.524;13.694;2024-02-23T07:38:08;98849.06;;;7.20;64.16
22241;BME280;11289;52.524;13.694;2024-02-23T07:40:34;98853.19;;;7.26;64.27
22241;BME280;11289;52.524;13.694;2024-02-23T07:43:00;98856.41;;;7.28;64.97
22241;BME280;11289;52.524;13.694;2024-02-23T07:45:26;98858.00;;;7.29;65.05
22241;BME280;11289;52.524;13.694;2024-02-23T07:47:52;98871.56;;;7.34;64.70
22241;BME280;11289;52.524;13.694;2024-02-23T07:50:18;98865.59;;;7.32;64.66
22241;BME280;11289;52.524;13.694;2024-02-23T07:52:44;98871.22;;;7.36;64.55
22241;BME280;11289;52.524;13.694;2024-02-23T07:55:10;98877.53;;;7.36;65.18
22241;BME280;11289;52.524;13.694;2024-02-23T07:57:36;98894.44;;;7.35;65.09
22241;BME280;11289;52.524;13.694;2024-02-23T08:00:04;98894.19;;;7.40;65.18
22241;BME280;11289;52.524;13.694;2024-02-23T08:02:30;98901.22;;;7.37;64.56
22241;BME280;11289;52.524;13.694;2024-02-23T08:04:56;98912.03;;;7.42;65.04
22241;BME280;11289;52.524;13.694;2024-02-23T08:07:22;98920.88;;;7.48;64.19
22241;BME280;11289;52.524;13.694;2024-02-23T08:09:48;98918.75;;;7.57;64.29
22241;BME280;11289;52.524;13.694;2024-02-23T08:12:14;98914.69;;;7.67;64.45
22241;BME280;11289;52.524;13.694;2024-02-23T08:14:41;98926.22;;;7.85;64.80
22241;BME280;11289;52.524;13.694;2024-02-23T08:17:08;98927.31;;;7.96;64.00
22241;BME280;11289;52.524;13.694;2024-02-23T08:19:34;98932.41;;;8.10;63.00
22241;BME280;11289;52.524;13.694;2024-02-23T08:22:00;98955.16;;;8.19;62.66
22241;BME280;11289;52.524;13.694;2024-02-23T08:24:25;98948.13;;;8.22;62.33
22241;BME280;11289;52.524;13.694;2024-02-23T08:26:52;98951.44;;;8.28;63.43
22241;BME280;11289;52.524;13.694;2024-02-23T08:29:18;98959.00;;;8.31;61.49
22241;BME280;11289;52.524;13.694;2024-02-23T08:31:44;98966.94;;;8.32;62.67
22241;BME280;11289;52.524;13.694;2024-02-23T08:34:10;98972.56;;;8.36;61.83
22241;BME280;11289;52.524;13.694;2024-02-23T08:36:36;98973.28;;;8.33;61.44
22241;BME280;11289;52.524;13.694;2024-02-23T08:39:02;98976.03;;;8.33;62.22
22241;BME280;11289;52.524;13.694;2024-02-23T08:41:28;98979.94;;;8.32;61.88
22241;BME280;11289;52.524;13.694;2024-02-23T08:43:54;98972.84;;;8.31;61.70
22241;BME280;11289;52.524;13.694;2024-02-23T08:46:21;98971.94;;;8.27;62.19
22241;BME280;11289;52.524;13.694;2024-02-23T08:48:47;98979.09;;;8.28;61.09
22241;BME280;11289;52.524;13.694;2024-02-23T08:51:13;98961.59;;;8.24;61.70
22241;BME280;11289;52.524;13.694;2024-02-23T08:53:39;98963.88;;;8.22;61.83
22241;BME280;11289;52.524;13.694;2024-02-23T08:56:06;98998.16;;;8.33;62.37
22241;BME280;11289;52.524;13.694;2024-02-23T08:58:33;98998.59;;;8.35;61.73
22241;BME280;11289;52.524;13.694;2024-02-23T09:00:59;99001.91;;;8.41;58.69
22241;BME280;11289;52.524;13.694;2024-02-23T09:03:25;99009.63;;;8.47;60.31
22241;BME280;11289;52.524;13.694;2024-02-23T09:05:51;99005.00;;;8.51;60.35
22241;BME280;11289;52.524;13.694;2024-02-23T09:08:17;99012.94;;;8.53;59.22
22241;BME280;11289;52.524;13.694;2024-02-23T09:10:42;99009.69;;;8.51;59.61
22241;BME280;11289;52.524;13.694;2024-02-23T09:13:08;99004.63;;;8.53;59.48
22241;BME280;11289;52.524;13.694;2024-02-23T09:15:34;98994.28;;;8.50;58.79
22241;BME280;11289;52.524;13.694;2024-02-23T09:18:00;99000.25;;;8.52;58.48
22241;BME280;11289;52.524;13.694;2024-02-23T09:20:26;99007.94;;;8.59;58.63
22241;BME280;11289;52.524;13.694;2024-02-23T09:22:52;99002.94;;;8.64;59.44
22241;BME280;11289;52.524;13.694;2024-02-23T09:25:18;99019.81;;;8.75;59.54
22241;BME280;11289;52.524;13.694;2024-02-23T09:27:44;99017.69;;;8.84;59.28
22241;BME280;11289;52.524;13.694;2024-02-23T09:30:12;99013.13;;;8.92;59.27
22241;BME280;11289;52.524;13.694;2024-02-23T09:32:38;99016.66;;;9.09;59.72
22241;BME280;11289;52.524;13.694;2024-02-23T09:35:04;99015.47;;;9.26;60.53
22241;BME280;11289;52.524;13.694;2024-02-23T09:37:32;99026.16;;;9.43;59.43
22241;BME280;11289;52.524;13.694;2024-02-23T09:39:58;99028.88;;;9.59;59.96
22241;BME280;11289;52.524;13.694;2024-02-23T09:42:24;99032.47;;;9.79;57.74
22241;BME280;11289;52.524;13.694;2024-02-23T09:44:59;99033.19;;;9.96;57.21
22241;BME280;11289;52.524;13.694;2024-02-23T09:47:27;99040.19;;;10.09;56.85
22241;BME280;11289;52.524;13.694;2024-02-23T09:49:54;99040.63;;;10.11;54.75
22241;BME280;11289;52.524;13.694;2024-02-23T09:52:21;99040.47;;;10.23;55.73
22241;BME280;11289;52.524;13.694;2024-02-23T09:54:48;99057.69;;;10.33;53.79
22241;BME280;11289;52.524;13.694;2024-02-23T09:57:15;99059.81;;;10.39;54.45
22241;BME280;11289;52.524;13.694;2024-02-23T09:59:41;99054.78;;;10.45;53.11
22241;BME280;11289;52.524;13.694;2024-02-23T10:02:09;99070.56;;;10.41;52.73
22241;BME280;11289;52.524;13.694;2024-02-23T10:04:39;99073.19;;;10.53;51.82
22241;BME280;11289;52.524;13.694;2024-02-23T10:07:06;99074.47;;;10.59;52.28
22241;BME280;11289;52.524;13.694;2024-02-23T10:09:32;99074.22;;;10.68;50.73
22241;BME280;11289;52.524;13.694;2024-02-23T10:11:58;99067.66;;;10.76;50.19
22241;BME280;11289;52.524;13.694;2024-02-23T10:14:23;99074.19;;;10.88;49.57
22241;BME280;11289;52.524;13.694;2024-02-23T10:16:49;99070.47;;;11.03;50.49
22241;BME280;11289;52.524;13.694;2024-02-23T10:19:19;99064.78;;;11.19;48.53
22241;BME280;11289;52.524;13.694;2024-02-23T10:21:46;99078.00;;;11.26;48.97
22241;BME280;11289;52.524;13.694;2024-02-23T10:24:13;99079.56;;;11.27;48.75
22241;BME280;11289;52.524;13.694;2024-02-23T10:26:41;99073.66;;;11.28;49.46
22241;BME280;11289;52.524;13.694;2024-02-23T10:29:07;99067.66;;;11.26;50.08
22241;BME280;11289;52.524;13.694;2024-02-23T10:31:35;99073.03;;;11.39;49.38
22241;BME280;11289;52.524;13.694;2024-02-23T10:34:07;99073.34;;;11.33;48.56
22241;BME280;11289;52.524;13.694;2024-02-23T10:36:41;99084.28;;;11.23;48.80
22241;BME280;11289;52.524;13.694;2024-02-23T10:39:08;99084.31;;;11.00;49.73
22241;BME280;11289;52.524;13.694;2024-02-23T10:41:39;99072.69;;;10.71;49.06
22241;BME280;11289;52.524;13.694;2024-02-23T10:44:10;99080.75;;;10.56;51.22
22241;BME280;11289;52.524;13.694;2024-02-23T10:46:37;99076.94;;;10.41;52.02
22241;BME280;11289;52.524;13.694;2024-02-23T10:49:03;99085.09;;;10.34;52.07
22241;BME280;11289;52.524;13.694;2024-02-23T10:51:30;99069.94;;;10.51;52.33
22241;BME280;11289;52.524;13.694;2024-02-23T10:53:57;99091.56;;;10.85;52.54
22241;BME280;11289;52.524;13.694;2024-02-23T10:56:23;99083.13;;;11.01;51.62
22241;BME280;11289;52.524;13.694;2024-02-23T10:58:50;99087.22;;;11.07;50.54
22241;BME280;11289;52.524;13.694;2024-02-23T11:01:17;99085.63;;;11.09;49.70
22241;BME280;11289;52.524;13.694;2024-02-23T11:03:45;99086.38;;;11.06;50.57
22241;BME280;11289;52.524;13.694;2024-02-23T11:06:16;99081.44;;;11.19;51.47
22241;BME280;11289;52.524;13.694;2024-02-23T11:08:49;99103.16;;;11.37;49.73
22241;BME280;11289;52.524;13.694;2024-02-23T11:11:16;99073.94;;;11.20;49.58
22241;BME280;11289;52.524;13.694;2024-02-23T11:13:44;99087.59;;;11.32;48.68
22241;BME280;11289;52.524;13.694;2024-02-23T11:16:21;99095.81;;;11.52;48.87
22241;BME280;11289;52.524;13.694;2024-02-23T11:18:48;99083.53;;;11.53;47.49
22241;BME280;11289;52.524;13.694;2024-02-23T11:21:13;99085.53;;;11.52;47.67
22241;BME280;11289;52.524;13.694;2024-02-23T11:26:11;99086.41;;;11.87;47.28
22241;BME280;11289;52.524;13.694;2024-02-23T11:28:44;99094.13;;;11.97;47.23
22241;BME280;11289;52.524;13.694;2024-02-23T11:31:14;99101.53;;;11.89;46.19
22241;BME280;11289;52.524;13.694;2024-02-23T11:33:40;99099.00;;;11.77;46.34
22241;BME280;11289;52.524;13.694;2024-02-23T11:36:22;99105.19;;;11.93;46.99
22241;BME280;11289;52.524;13.694;2024-02-23T11:38:48;99088.19;;;11.98;45.18
22241;BME280;11289;52.524;13.694;2024-02-23T11:41:14;99103.03;;;12.10;44.77
22241;BME280;11289;52.524;13.694;2024-02-23T11:43:41;99112.56;;;12.09;44.89
22241;BME280;11289;52.524;13.694;2024-02-23T11:46:07;99111.09;;;12.18;45.63
22241;BME280;11289;52.524;13.694;2024-02-23T11:48:33;99107.28;;;12.30;45.55
22241;BME280;11289;52.524;13.694;2024-02-23T11:50:59;99110.38;;;12.25;44.29
22241;BME280;11289;52.524;13.694;2024-02-23T11:53:25;99103.66;;;12.30;45.68
22241;BME280;11289;52.524;13.694;2024-02-23T11:55:53;99112.78;;;12.27;45.34
22241;BME280;11289;52.524;13.694;2024-02-23T11:58:19;99131.38;;;12.19;44.77
22241;BME280;11289;52.524;13.694;2024-02-23T12:00:45;99135.78;;;11.93;44.93
22241;BME280;11289;52.524;13.694;2024-02-23T12:03:11;99134.78;;;11.82;45.41
22241;BME280;11289;52.524;13.694;2024-02-23T12:05:37;99122.41;;;11.76;46.14
22241;BME280;11289;52.524;13.694;2024-02-23T12:08:04;99136.78;;;11.81;46.21
22241;BME280;11289;52.524;13.694;2024-02-23T12:10:30;99137.81;;;11.70;45.26
22241;BME280;11289;52.524;13.694;2024-02-23T12:12:56;99143.06;;;11.52;44.85
22241;BME280;11289;52.524;13.694;2024-02-23T12:15:23;99141.41;;;11.47;45.30
22241;BME280;11289;52.524;13.694;2024-02-23T12:17:49;99146.97;;;11.47;45.44
22241;BME280;11289;52.524;13.694;2024-02-23T12:20:15;99138.34;;;11.52;46.67
22241;BME280;11289;52.524;13.694;2024-02-23T12:22:42;99139.56;;;11.55;46.64
22241;BME280;11289;52.524;13.694;2024-02-23T12:25:08;99145.13;;;11.55;46.41
22241;BME280;11289;52.524;13.694;2024-02-23T12:27:34;99151.38;;;11.48;45.55
22241;BME280;11289;52.524;13.694;2024-02-23T12:30:00;99154.41;;;11.39;46.24
22241;BME280;11289;52.524;13.694;2024-02-23T12:32:26;99152.63;;;11.27;46.07
22241;BME280;11289;52.524;13.694;2024-02-23T12:34:55;99150.00;;;11.15;46.00
22241;BME280;11289;52.524;13.694;2024-02-23T12:37:21;99150.75;;;11.12;46.81
22241;BME280;11289;52.524;13.694;2024-02-23T12:39:50;99154.34;;;11.12;47.19
22241;BME280;11289;52.524;13.694;2024-02-23T12:42:18;99159.53;;;11.14;47.43
22241;BME280;11289;52.524;13.694;2024-02-23T12:44:44;99158.53;;;11.03;46.03
22241;BME280;11289;52.524;13.694;2024-02-23T12:47:10;99150.50;;;10.97;47.45
22241;BME280;11289;52.524;13.694;2024-02-23T12:49:36;99169.66;;;11.03;48.20
22241;BME280;11289;52.524;13.694;2024-02-23T12:52:02;99159.41;;;11.07;48.34
22241;BME280;11289;52.524;13.694;2024-02-23T12:54:28;99168.16;;;11.09;47.96